createdAt,value
2019-04-06T00:00:30.069Z,5.4
2019-04-06T00:01:20.129Z,5.4
2019-04-06T00:02:10.238Z,5.4
2019-04-06T00:02:59.984Z,5.4
2019-04-06T00:03:52.656Z,5.4
2019-04-06T00:04:40.413Z,5.4
2019-04-06T00:05:30.151Z,5.5
2019-04-06T00:06:20.231Z,5.5
2019-04-06T00:07:10.276Z,5.5
2019-04-06T00:08:00.616Z,5.5
2019-04-06T00:08:50.396Z,5.5
2019-04-06T00:09:40.451Z,5.6
2019-04-06T00:10:30.789Z,5.6
2019-04-06T00:11:20.903Z,5.6
2019-04-06T00:12:10.917Z,5.6
2019-04-06T00:13:01.050Z,5.6
2019-04-06T00:13:50.782Z,5.6
2019-04-06T00:14:40.825Z,5.6
2019-04-06T00:15:31.148Z,5.6
2019-04-06T00:16:21.215Z,5.6
2019-04-06T00:17:11.005Z,5.6
2019-04-06T00:18:01.046Z,5.6
2019-04-06T00:18:51.403Z,5.6
2019-04-06T00:19:41.183Z,5.6
2019-04-06T00:20:31.520Z,5.6
2019-04-06T00:21:21.574Z,5.6
2019-04-06T00:22:11.637Z,5.6
2019-04-06T00:23:01.702Z,5.7
2019-04-06T00:23:51.480Z,5.7
2019-04-06T00:24:41.553Z,5.7
2019-04-06T00:25:31.879Z,5.7
2019-04-06T00:26:21.700Z,5.7
2019-04-06T00:27:11.997Z,5.7
2019-04-06T00:28:01.775Z,5.8
2019-04-06T00:28:52.149Z,5.8
2019-04-06T00:29:42.185Z,5.7
2019-04-06T00:30:32.004Z,5.8
2019-04-06T00:31:22.029Z,5.8
2019-04-06T00:32:12.383Z,5.8
2019-04-06T00:33:02.144Z,5.7
2019-04-06T00:33:52.540Z,5.8
2019-04-06T00:34:42.600Z,5.8
2019-04-06T00:35:32.680Z,5.8
2019-04-06T00:36:22.662Z,5.8
2019-04-06T00:37:12.726Z,5.8
2019-04-06T00:38:02.544Z,5.8
2019-04-06T00:38:52.926Z,5.8
2019-04-06T00:39:42.904Z,5.8
2019-04-06T00:40:32.966Z,5.8
2019-04-06T00:41:23.026Z,5.8
2019-04-06T00:42:13.094Z,5.8
2019-04-06T00:43:03.156Z,5.8
2019-04-06T00:43:53.214Z,5.8
2019-04-06T00:44:43.272Z,5.8
2019-04-06T00:45:33.319Z,5.8
2019-04-06T00:46:23.426Z,5.8
2019-04-06T00:47:13.446Z,5.8
2019-04-06T00:48:03.562Z,5.8
2019-04-06T00:48:53.559Z,5.8
2019-04-06T00:49:43.674Z,5.8
2019-04-06T00:50:33.725Z,5.8
2019-04-06T00:51:23.764Z,5.8
2019-04-06T00:52:13.553Z,5.8
2019-04-06T00:53:03.639Z,5.9
2019-04-06T00:53:53.958Z,5.8
2019-04-06T00:54:44.001Z,5.9
2019-04-06T00:55:34.118Z,5.8
2019-04-06T00:56:23.890Z,5.8
2019-04-06T00:57:13.888Z,5.9
2019-04-06T00:58:04.233Z,5.9
2019-04-06T00:58:54.054Z,5.9
2019-04-06T00:59:44.345Z,5.9
2019-04-06T01:00:34.491Z,5.9
2019-04-06T01:01:24.214Z,5.9
2019-04-06T01:02:14.593Z,5.9
2019-04-06T01:03:04.355Z,5.9
2019-04-06T01:03:54.650Z,5.9
2019-04-06T01:04:44.440Z,5.9
2019-04-06T01:05:34.848Z,5.9
2019-04-06T01:06:24.840Z,5.9
2019-04-06T01:07:14.890Z,5.9
2019-04-06T01:08:04.954Z,5.9
2019-04-06T01:08:55.022Z,5.8
2019-04-06T01:09:45.075Z,5.9
2019-04-06T01:10:35.137Z,5.8
2019-04-06T01:11:25.182Z,5.9
2019-04-06T01:12:15.253Z,5.9
2019-04-06T01:13:05.315Z,5.9
2019-04-06T01:13:55.377Z,5.9
2019-04-06T01:14:45.432Z,5.9
2019-04-06T01:15:35.559Z,5.9
2019-04-06T01:16:25.350Z,5.8
2019-04-06T01:17:15.622Z,5.9
2019-04-06T01:18:05.699Z,5.8
2019-04-06T01:18:55.743Z,5.9
2019-04-06T01:19:45.519Z,5.9
2019-04-06T01:20:35.864Z,5.8
2019-04-06T01:21:25.939Z,5.9
2019-04-06T01:22:15.710Z,5.9
2019-04-06T01:23:05.757Z,5.8
2019-04-06T01:23:55.825Z,5.9
2019-04-06T01:24:46.160Z,5.8
2019-04-06T01:25:36.255Z,5.8
2019-04-06T01:26:26.294Z,5.8
2019-04-06T01:27:16.491Z,5.8
2019-04-06T01:28:06.126Z,5.8
2019-04-06T01:28:56.464Z,5.8
2019-04-06T01:29:46.330Z,5.8
2019-04-06T01:30:36.044Z,5.8
2019-04-06T01:31:26.658Z,5.8
2019-04-06T01:32:16.435Z,5.8
2019-04-06T01:33:06.782Z,5.8
2019-04-06T01:33:59.421Z,5.8
2019-04-06T01:34:46.881Z,5.8
2019-04-06T01:35:36.966Z,5.8
2019-04-06T01:36:27.198Z,5.7
2019-04-06T01:37:16.988Z,5.8
2019-04-06T01:38:07.133Z,5.7
2019-04-06T01:38:57.176Z,5.7
2019-04-06T01:39:47.328Z,5.7
2019-04-06T01:40:37.308Z,5.7
2019-04-06T01:41:27.196Z,5.7
2019-04-06T01:42:17.470Z,5.7
2019-04-06T01:43:07.485Z,5.7
2019-04-06T01:43:57.285Z,5.6
2019-04-06T01:44:47.608Z,5.6
2019-04-06T01:45:37.400Z,5.6
2019-04-06T01:46:27.727Z,5.6
2019-04-06T01:47:17.275Z,5.6
2019-04-06T01:48:07.560Z,5.6
2019-04-06T01:48:57.897Z,5.6
2019-04-06T01:49:47.703Z,5.6
2019-04-06T01:50:37.463Z,5.6
2019-04-06T01:51:28.180Z,5.6
2019-04-06T01:52:18.160Z,5.6
2019-04-06T01:53:08.210Z,5.6
2019-04-06T01:53:58.255Z,5.5
2019-04-06T01:54:48.319Z,5.5
2019-04-06T01:55:38.102Z,5.5
2019-04-06T01:56:28.590Z,5.5
2019-04-06T01:57:18.500Z,5.4
2019-04-06T01:58:08.022Z,5.4
2019-04-06T01:58:58.631Z,5.4
2019-04-06T01:59:48.684Z,5.4
2019-04-06T02:00:38.469Z,5.4
2019-04-06T02:01:28.804Z,5.4
2019-04-06T02:02:18.392Z,5.4
2019-04-06T02:03:08.732Z,5.4
2019-04-06T02:03:59.031Z,5.4
2019-04-06T02:04:49.166Z,5.3
2019-04-06T02:05:38.552Z,5.3
2019-04-06T02:06:29.324Z,5.3
2019-04-06T02:07:19.254Z,5.3
2019-04-06T02:08:09.294Z,5.3
2019-04-06T02:08:59.142Z,5.3
2019-04-06T02:09:49.589Z,5.2
2019-04-06T02:10:39.655Z,5.3
2019-04-06T02:11:29.528Z,5.2
2019-04-06T02:12:19.595Z,5.2
2019-04-06T02:13:09.662Z,5.2
2019-04-06T02:13:59.711Z,5.2
2019-04-06T02:14:49.484Z,5.1
2019-04-06T02:15:39.833Z,5.1
2019-04-06T02:16:29.621Z,5.1
2019-04-06T02:17:19.943Z,5.1
2019-04-06T02:18:10.005Z,5.1
2019-04-06T02:19:00.168Z,5.1
2019-04-06T02:19:50.131Z,5
2019-04-06T02:20:54.841Z,5
2019-04-06T02:21:30.039Z,5
2019-04-06T02:22:20.331Z,4.9
2019-04-06T02:23:10.401Z,4.9
2019-04-06T02:24:00.248Z,4.9
2019-04-06T02:24:50.275Z,4.9
2019-04-06T02:25:40.543Z,4.9
2019-04-06T02:26:32.632Z,4.9
2019-04-06T02:27:20.667Z,4.9
2019-04-06T02:28:10.877Z,4.9
2019-04-06T02:29:00.670Z,4.9
2019-04-06T02:29:50.853Z,4.8
2019-04-06T02:30:41.089Z,4.8
2019-04-06T02:31:30.732Z,4.8
2019-04-06T02:32:21.143Z,4.8
2019-04-06T02:33:14.991Z,4.8
2019-04-06T02:34:00.912Z,4.8
2019-04-06T02:34:50.960Z,4.8
2019-04-06T02:35:41.331Z,4.7
2019-04-06T02:36:31.384Z,4.7
2019-04-06T02:37:21.450Z,4.6
2019-04-06T02:38:10.987Z,4.7
2019-04-06T02:39:01.647Z,4.6
2019-04-06T02:39:51.693Z,4.6
2019-04-06T02:40:41.713Z,4.6
2019-04-06T02:41:31.165Z,4.6
2019-04-06T02:42:21.973Z,4.6
2019-04-06T02:43:12.129Z,4.6
2019-04-06T02:44:01.946Z,4.6
2019-04-06T02:44:51.981Z,4.6
2019-04-06T02:45:41.838Z,4.5
2019-04-06T02:46:32.673Z,4.5
2019-04-06T02:47:22.365Z,4.5
2019-04-06T02:48:12.192Z,4.5
2019-04-06T02:49:02.330Z,4.4
2019-04-06T02:49:52.707Z,4.4
2019-04-06T02:50:42.561Z,4.4
2019-04-06T02:51:32.691Z,4.4
2019-04-06T02:52:22.570Z,4.4
2019-04-06T02:53:12.594Z,4.4
2019-04-06T02:54:02.509Z,4.4
2019-04-06T02:54:52.959Z,4.4
2019-04-06T02:55:42.889Z,4.3
2019-04-06T02:56:48.788Z,4.3
2019-04-06T02:57:22.559Z,4.3
2019-04-06T02:58:12.928Z,4.3
2019-04-06T02:59:02.849Z,4.3
2019-04-06T02:59:53.020Z,4.3
2019-04-06T03:00:43.163Z,4.3
2019-04-06T03:01:33.256Z,4.2
2019-04-06T03:02:23.211Z,4.2
2019-04-06T03:03:13.509Z,4.2
2019-04-06T03:04:03.057Z,4.2
2019-04-06T03:07:23.739Z,4.1
2019-04-06T03:07:58.806Z,4.1
2019-04-06T03:08:49.191Z,4.1
2019-04-06T03:09:39.271Z,4.1
2019-04-06T03:10:29.156Z,4.1
2019-04-06T03:11:19.438Z,4.1
2019-04-06T03:12:09.324Z,4
2019-04-06T03:12:59.469Z,4
2019-04-06T03:13:49.511Z,3.9
2019-04-06T03:14:39.344Z,4
2019-04-06T03:15:29.452Z,3.9
2019-04-06T03:16:19.666Z,3.9
2019-04-06T03:17:09.440Z,3.9
2019-04-06T03:17:59.833Z,3.9
2019-04-06T03:18:49.992Z,3.9
2019-04-06T03:19:39.958Z,3.9
2019-04-06T03:20:30.151Z,3.9
2019-04-06T03:21:19.943Z,3.9
2019-04-06T03:22:10.063Z,3.8
2019-04-06T03:22:59.877Z,3.8
2019-04-06T03:23:53.786Z,3.8
2019-04-06T03:24:40.388Z,3.8
2019-04-06T03:25:30.302Z,3.8
2019-04-06T03:26:20.513Z,3.8
2019-04-06T03:27:10.152Z,3.8
2019-04-06T03:28:00.559Z,3.8
2019-04-06T03:28:50.548Z,3.8
2019-04-06T03:29:40.993Z,3.8
2019-04-06T03:30:31.755Z,3.7
2019-04-06T03:31:29.363Z,3.7
2019-04-06T03:32:10.795Z,3.7
2019-04-06T03:33:01.050Z,3.7
2019-04-06T03:33:51.350Z,3.7
2019-04-06T03:34:41.260Z,3.7
2019-04-06T03:35:31.275Z,3.7
2019-04-06T03:36:21.311Z,3.6
2019-04-06T03:37:10.870Z,3.6
2019-04-06T03:38:01.598Z,3.6
2019-04-06T03:38:51.453Z,3.6
2019-04-06T03:39:41.322Z,3.6
2019-04-06T03:40:31.603Z,3.6
2019-04-06T03:41:21.279Z,3.6
2019-04-06T03:42:12.788Z,3.6
2019-04-06T03:43:01.357Z,3.6
2019-04-06T03:43:51.919Z,3.6
2019-04-06T03:44:41.452Z,3.5
2019-04-06T03:45:31.592Z,3.5
2019-04-06T03:46:22.072Z,3.5
2019-04-06T03:47:11.870Z,3.5
2019-04-06T03:48:01.930Z,3.5
2019-04-06T03:48:52.064Z,3.4
2019-04-06T03:49:41.914Z,3.4
2019-04-06T03:50:32.112Z,3.4
2019-04-06T03:51:22.402Z,3.4
2019-04-06T03:52:12.292Z,3.4
2019-04-06T03:53:02.306Z,3.4
2019-04-06T03:53:52.114Z,3.4
2019-04-06T03:54:42.433Z,3.4
2019-04-06T03:55:32.519Z,3.4
2019-04-06T03:56:22.612Z,3.3
2019-04-06T03:57:18.201Z,3.3
2019-04-06T03:58:02.996Z,3.3
2019-04-06T03:58:53.911Z,3.3
2019-04-06T03:59:42.628Z,3.3
2019-04-06T04:00:33.264Z,3.3
2019-04-06T04:01:22.949Z,3.3
2019-04-06T04:02:12.960Z,3.3
2019-04-06T04:03:02.951Z,3.3
2019-04-06T04:03:53.040Z,3.3
2019-04-06T04:04:43.035Z,3.3
2019-04-06T04:05:33.258Z,3.2
2019-04-06T04:06:23.420Z,3.2
2019-04-06T04:07:13.363Z,3.2
2019-04-06T04:08:03.255Z,3.2
2019-04-06T04:08:53.156Z,3.2
2019-04-06T04:09:43.875Z,3.2
2019-04-06T04:10:33.180Z,3.1
2019-04-06T04:11:23.972Z,3.1
2019-04-06T04:12:13.897Z,3.1
2019-04-06T04:13:03.698Z,3.1
2019-04-06T04:13:54.148Z,3.1
2019-04-06T04:14:43.661Z,3.1
2019-04-06T04:15:33.950Z,3.1
2019-04-06T04:16:24.350Z,3.1
2019-04-06T04:17:14.510Z,3.1
2019-04-06T04:18:04.405Z,3.1
2019-04-06T04:18:54.149Z,3
2019-04-06T04:19:44.235Z,3
2019-04-06T04:20:34.297Z,3
2019-04-06T04:21:24.398Z,3
2019-04-06T04:22:14.245Z,2.9
2019-04-06T04:23:04.953Z,2.9
2019-04-06T04:23:54.249Z,2.9
2019-04-06T04:24:44.582Z,2.9
2019-04-06T04:25:34.722Z,2.9
2019-04-06T04:26:24.659Z,2.9
2019-04-06T04:27:31.639Z,2.9
2019-04-06T04:28:05.133Z,2.9
2019-04-06T04:28:55.203Z,2.9
2019-04-06T04:29:45.194Z,2.9
2019-04-06T04:30:35.987Z,2.9
2019-04-06T04:31:25.085Z,2.9
2019-04-06T04:32:15.133Z,2.9
2019-04-06T04:33:05.204Z,2.9
2019-04-06T04:33:55.250Z,2.9
2019-04-06T04:34:45.295Z,2.9
2019-04-06T04:35:35.401Z,2.9
2019-04-06T04:36:25.598Z,2.9
2019-04-06T04:37:15.578Z,2.9
2019-04-06T04:38:05.573Z,2.9
2019-04-06T04:38:55.322Z,2.9
2019-04-06T04:39:45.692Z,2.9
2019-04-06T04:40:35.941Z,2.9
2019-04-06T04:41:25.561Z,2.9
2019-04-06T04:42:16.313Z,2.9
2019-04-06T04:43:05.664Z,2.9
2019-04-06T04:43:56.337Z,2.9
2019-04-06T04:44:46.448Z,2.9
2019-04-06T04:45:36.134Z,2.9
2019-04-06T04:46:26.279Z,2.9
2019-04-06T04:47:16.248Z,2.9
2019-04-06T04:48:06.143Z,2.9
2019-04-06T04:48:56.563Z,2.9
2019-04-06T04:49:46.410Z,2.9
2019-04-06T04:50:36.704Z,2.9
2019-04-06T04:51:26.026Z,3
2019-04-06T04:52:16.993Z,3
2019-04-06T04:53:06.476Z,3
2019-04-06T04:53:56.671Z,3
2019-04-06T04:54:46.982Z,3
2019-04-06T04:55:37.122Z,3
2019-04-06T04:56:26.465Z,3.1
2019-04-06T04:57:17.041Z,3.1
2019-04-06T04:58:06.749Z,3.1
2019-04-06T04:58:57.044Z,3.1
2019-04-06T04:59:47.122Z,3.1
2019-04-06T05:00:37.176Z,3.1
2019-04-06T05:01:27.416Z,3.2
2019-04-06T05:02:17.278Z,3.2
2019-04-06T05:03:07.363Z,3.3
2019-04-06T05:03:56.842Z,3.3
2019-04-06T05:04:47.794Z,3.3
2019-04-06T05:05:37.614Z,3.3
2019-04-06T05:06:27.441Z,3.3
2019-04-06T05:07:17.704Z,3.4
2019-04-06T05:08:07.687Z,3.4
2019-04-06T05:08:58.055Z,3.4
2019-04-06T05:09:47.612Z,3.4
2019-04-06T05:10:37.880Z,3.4
2019-04-06T05:11:28.105Z,3.5
2019-04-06T05:12:17.988Z,3.6
2019-04-06T05:13:08.414Z,3.6
2019-04-06T05:13:58.113Z,3.6
2019-04-06T05:14:48.266Z,3.6
2019-04-06T05:15:37.676Z,3.7
2019-04-06T05:16:28.429Z,3.8
2019-04-06T05:17:18.486Z,3.8
2019-04-06T05:18:07.988Z,3.8
2019-04-06T05:18:58.467Z,3.9
2019-04-06T05:19:48.531Z,3.9
2019-04-06T05:20:38.328Z,4
2019-04-06T05:21:28.774Z,4.1
2019-04-06T05:22:18.762Z,4.1
2019-04-06T05:23:08.774Z,4.2
2019-04-06T05:23:58.836Z,4.3
2019-04-06T05:24:49.148Z,4.3
2019-04-06T05:25:38.693Z,4.4
2019-04-06T05:26:39.395Z,4.5
2019-04-06T05:27:19.212Z,4.6
2019-04-06T05:28:09.133Z,4.6
2019-04-06T05:28:59.305Z,4.7
2019-04-06T05:29:49.256Z,4.8
2019-04-06T05:30:39.320Z,4.9
2019-04-06T06:05:12.009Z,10.3
2019-04-06T06:05:59.184Z,10.6
2019-04-06T06:06:49.092Z,10.7
2019-04-06T06:07:39.024Z,10.8
2019-04-06T06:08:31.536Z,10.9
2019-04-06T06:09:18.858Z,11.1
2019-04-06T06:10:08.608Z,11.2
2019-04-06T06:10:59.260Z,11.4
2019-04-06T06:11:48.780Z,11.5
2019-04-06T06:12:39.322Z,11.6
2019-04-06T06:13:29.357Z,11.8
2019-04-06T06:14:19.661Z,11.9
2019-04-06T06:15:09.273Z,12.1
2019-04-06T06:15:59.618Z,10.1
2019-04-06T06:16:50.149Z,9.1
2019-04-06T06:17:39.967Z,14.3
2019-04-06T06:18:29.740Z,18.5
2019-04-06T06:19:19.610Z,18.8
2019-04-06T06:20:09.780Z,20.3
2019-04-06T06:20:59.690Z,22.6
2019-04-06T06:21:50.141Z,23.2
2019-04-06T06:22:40.283Z,23.3
2019-04-06T06:23:30.495Z,23.2
2019-04-06T06:24:20.220Z,23.1
2019-04-06T06:25:10.280Z,23
2019-04-06T06:26:00.588Z,22.9
2019-04-06T06:26:50.259Z,22.8
2019-04-06T06:27:40.465Z,22.8
2019-04-06T06:28:30.515Z,22.6
2019-04-06T06:29:20.722Z,22.6
2019-04-06T06:30:10.643Z,22.4
2019-04-06T06:31:00.732Z,22.4
2019-04-06T06:31:51.008Z,22.3
2019-04-06T06:32:40.807Z,22.2
2019-04-06T06:33:30.874Z,22.1
2019-04-06T06:34:20.932Z,22.1
2019-04-06T06:35:11.366Z,21.9
2019-04-06T06:36:01.051Z,21.9
2019-04-06T06:36:51.376Z,21.8
2019-04-06T06:37:41.159Z,21.8
2019-04-06T06:38:31.534Z,21.7
2019-04-06T06:39:21.154Z,21.6
2019-04-06T06:40:11.149Z,21.6
2019-04-06T06:41:01.129Z,21.6
2019-04-06T06:41:51.481Z,21.6
2019-04-06T06:42:41.541Z,21.6
2019-04-06T06:43:31.386Z,21.6
2019-04-06T06:44:21.758Z,21.5
2019-04-06T06:45:11.438Z,21.6
2019-04-06T06:46:01.770Z,21.6
2019-04-06T06:46:52.173Z,21.5
2019-04-06T06:48:32.034Z,20.5
2019-04-06T06:49:21.848Z,20.5
2019-04-06T06:50:12.034Z,21.1
2019-04-06T06:51:01.973Z,20.9
2019-04-06T06:51:52.166Z,22.9
2019-04-06T06:52:42.356Z,25.1
2019-04-06T06:53:32.055Z,25.9
2019-04-06T06:54:22.528Z,25.9
2019-04-06T06:55:12.596Z,25.3
2019-04-06T06:56:01.958Z,24.6
2019-04-06T06:56:52.280Z,24.2
2019-04-06T06:57:42.333Z,24
2019-04-06T06:58:32.456Z,24.2
2019-04-06T06:59:22.457Z,24.5
2019-04-06T07:00:12.533Z,24.9
2019-04-06T07:01:05.218Z,25.2
2019-04-06T07:01:52.634Z,25.4
2019-04-06T07:02:42.701Z,25.4
2019-04-06T07:05:08.892Z,25.5
2019-04-06T07:05:58.966Z,25.6
2019-04-06T07:06:48.848Z,25.8
2019-04-06T07:07:38.711Z,26
2019-04-06T07:08:29.058Z,26.2
2019-04-06T07:09:19.099Z,26.4
2019-04-06T07:10:09.111Z,26.6
2019-04-06T07:10:59.353Z,26.8
2019-04-06T07:11:49.174Z,26.9
2019-04-06T07:12:39.325Z,27.1
2019-04-06T07:13:29.143Z,27.2
2019-04-06T07:14:19.559Z,27.4
2019-04-06T07:15:09.719Z,27.6
2019-04-06T07:15:59.064Z,27.8
2019-04-06T07:16:49.872Z,27.9
2019-04-06T07:17:39.725Z,28.1
2019-04-06T07:18:30.050Z,28.1
2019-04-06T07:19:20.090Z,28
2019-04-06T07:20:09.865Z,28.1
2019-04-06T07:20:59.929Z,28.1
2019-04-06T07:21:50.036Z,28.2
2019-04-06T07:22:39.890Z,28.4
2019-04-06T07:23:29.825Z,28.6
2019-04-06T07:24:20.344Z,28.9
2019-04-06T07:25:10.235Z,29
2019-04-06T07:26:00.360Z,29.2
2019-04-06T07:26:49.785Z,29.4
2019-04-06T07:27:40.247Z,29.5
2019-04-06T07:28:40.429Z,29.7
2019-04-06T07:29:20.520Z,29.9
2019-04-06T07:30:10.722Z,29.9
2019-04-06T07:31:00.677Z,30.1
2019-04-06T07:31:50.704Z,30.3
2019-04-06T07:32:40.597Z,30.6
2019-04-06T07:33:31.059Z,30.8
2019-04-06T07:34:21.067Z,30.9
2019-04-06T07:35:10.807Z,31.2
2019-04-06T07:36:01.169Z,31.4
2019-04-06T07:36:51.057Z,31.6
2019-04-06T07:37:41.299Z,31.8
2019-04-06T07:38:30.899Z,32
2019-04-06T07:39:21.244Z,32.2
2019-04-06T07:40:11.334Z,32.3
2019-04-06T07:41:01.360Z,32.5
2019-04-06T07:41:51.684Z,32.7
2019-04-06T07:42:41.486Z,32.9
2019-04-06T07:43:31.311Z,33.1
2019-04-06T07:44:21.501Z,33.2
2019-04-06T07:45:11.447Z,33.4
2019-04-06T07:46:01.497Z,33.5
2019-04-06T07:46:51.749Z,33.7
2019-04-06T07:47:42.083Z,33.8
2019-04-06T07:48:32.082Z,33.9
2019-04-06T07:49:21.969Z,34.1
2019-04-06T07:50:12.056Z,34.4
2019-04-06T07:51:01.808Z,34.5
2019-04-06T07:51:51.978Z,34.6
2019-04-06T07:52:41.726Z,34.8
2019-04-06T07:53:31.591Z,34.9
2019-04-06T07:54:22.013Z,35
2019-04-06T07:55:11.918Z,35.1
2019-04-06T07:56:02.019Z,35.3
2019-04-06T07:56:52.243Z,35.4
2019-04-06T07:57:41.952Z,35.5
2019-04-06T07:58:32.288Z,35.6
2019-04-06T07:59:22.789Z,35.9
2019-04-06T08:00:12.770Z,36
2019-04-06T08:01:02.543Z,36.1
2019-04-06T08:01:52.493Z,36.3
2019-04-06T08:02:42.172Z,36.4
2019-04-06T08:03:33.086Z,36.6
2019-04-06T08:04:22.320Z,36.9
2019-04-06T08:05:12.258Z,37
2019-04-06T08:06:02.527Z,37.3
2019-04-06T08:06:53.609Z,37.4
2019-04-06T08:07:43.336Z,37.6
2019-04-06T08:08:33.387Z,37.8
2019-04-06T08:09:23.309Z,37.9
2019-04-06T08:10:13.457Z,38.1
2019-04-06T08:11:03.311Z,38.2
2019-04-06T08:11:53.782Z,38.4
2019-04-06T08:12:43.682Z,38.6
2019-04-06T08:13:33.848Z,38.8
2019-04-06T08:14:23.759Z,38.9
2019-04-06T08:15:13.538Z,39
2019-04-06T08:16:04.512Z,39.3
2019-04-06T08:16:53.672Z,39.4
2019-04-06T08:17:43.739Z,39.6
2019-04-06T08:18:34.112Z,39.8
2019-04-06T08:19:24.202Z,39.9
2019-04-06T08:20:14.074Z,40.1
2019-04-06T08:21:04.241Z,40.3
2019-04-06T08:21:54.052Z,40.4
2019-04-06T08:22:44.624Z,40.6
2019-04-06T08:23:34.379Z,40.7
2019-04-06T08:24:24.852Z,40.9
2019-04-06T08:25:14.521Z,41
2019-04-06T08:26:04.617Z,41.1
2019-04-06T08:26:55.006Z,41.3
2019-04-06T08:27:45.025Z,41.3
2019-04-06T08:28:34.769Z,41.4
2019-04-06T08:29:24.290Z,41.6
2019-04-06T08:30:14.869Z,41.7
2019-04-06T08:31:05.381Z,41.8
2019-04-06T08:31:55.037Z,42
2019-04-06T08:32:45.402Z,42.3
2019-04-06T08:33:34.861Z,42.5
2019-04-06T08:34:25.203Z,42.7
2019-04-06T08:35:27.751Z,42.8
2019-04-06T08:36:05.321Z,42.9
2019-04-06T08:36:55.114Z,43.1
2019-04-06T08:37:45.164Z,43.3
2019-04-06T08:38:35.418Z,43.4
2019-04-06T08:39:27.361Z,43.5
2019-04-06T08:40:15.576Z,43.7
2019-04-06T08:41:05.604Z,43.8
2019-04-06T08:41:55.932Z,43.8
2019-04-06T08:42:45.539Z,43.8
2019-04-06T08:43:35.582Z,43.8
2019-04-06T08:44:25.920Z,43.7
2019-04-06T08:45:16.118Z,43.5
2019-04-06T08:46:06.232Z,43.3
2019-04-06T08:46:56.098Z,42.9
2019-04-06T08:47:46.013Z,42.6
2019-04-06T08:48:36.265Z,42.4
2019-04-06T08:49:26.495Z,42.4
2019-04-06T08:50:16.506Z,42.4
2019-04-06T08:51:06.421Z,42.5
2019-04-06T08:51:56.627Z,42.6
2019-04-06T08:52:46.909Z,42.9
2019-04-06T08:53:36.863Z,43.2
2019-04-06T08:54:26.915Z,43.5
2019-04-06T08:55:16.915Z,43.6
2019-04-06T08:56:06.602Z,43.7
2019-04-06T08:56:56.827Z,43.8
2019-04-06T08:57:46.913Z,43.8
2019-04-06T08:58:37.312Z,43.8
2019-04-06T08:59:27.350Z,44
2019-04-06T09:00:16.955Z,44.3
2019-04-06T09:01:07.362Z,44.6
2019-04-06T09:01:57.179Z,45
2019-04-06T09:02:47.428Z,45.3
2019-04-06T09:03:37.305Z,45.5
2019-04-06T09:04:27.384Z,45.4
2019-04-06T09:05:17.438Z,45.3
2019-04-06T09:06:07.467Z,45.3
2019-04-06T09:06:57.636Z,45.5
2019-04-06T09:07:47.882Z,45.8
2019-04-06T09:08:37.700Z,45.9
2019-04-06T09:09:28.221Z,45.9
2019-04-06T09:10:17.962Z,45.8
2019-04-06T09:11:07.291Z,45.8
2019-04-06T09:11:57.872Z,45.7
2019-04-06T09:12:48.041Z,45.5
2019-04-06T09:13:40.807Z,45.4
2019-04-06T09:14:27.834Z,45.4
2019-04-06T09:15:18.178Z,45.2
2019-04-06T09:16:08.017Z,45.2
2019-04-06T09:16:58.266Z,45.1
2019-04-06T09:17:48.386Z,45.1
2019-04-06T09:18:38.728Z,45.1
2019-04-06T09:19:28.504Z,45.1
2019-04-06T09:20:18.359Z,45.1
2019-04-06T09:21:08.586Z,45.1
2019-04-06T09:21:59.127Z,45.3
2019-04-06T09:22:48.676Z,45.3
2019-04-06T09:23:38.743Z,45.4
2019-04-06T09:24:29.099Z,45.4
2019-04-06T09:25:19.099Z,45.4
2019-04-06T09:26:09.059Z,45.4
2019-04-06T09:26:58.715Z,45.5
2019-04-06T09:27:49.350Z,45.6
2019-04-06T09:28:38.710Z,45.8
2019-04-06T09:29:29.263Z,46
2019-04-06T09:30:19.241Z,46.1
2019-04-06T09:31:09.343Z,46.2
2019-04-06T09:31:59.746Z,46.3
2019-04-06T09:32:49.520Z,46.5
2019-04-06T09:33:39.155Z,46.8
2019-04-06T09:34:32.443Z,47.1
2019-04-06T09:35:19.676Z,47.5
2019-04-06T09:36:09.935Z,47.7
2019-04-06T09:36:59.497Z,47.9
2019-04-06T09:37:49.868Z,48.1
2019-04-06T09:38:39.858Z,48.1
2019-04-06T09:39:29.885Z,48.1
2019-04-06T09:40:19.962Z,48.3
2019-04-06T09:41:10.092Z,48.4
2019-04-06T09:42:00.243Z,48.6
2019-04-06T09:42:50.349Z,48.6
2019-04-06T09:43:40.344Z,48.6
2019-04-06T09:44:30.510Z,48.4
2019-04-06T09:45:20.577Z,48.4
2019-04-06T09:46:10.471Z,48.4
2019-04-06T09:47:00.904Z,48.6
2019-04-06T09:47:51.069Z,48.9
2019-04-06T09:48:40.734Z,49.2
2019-04-06T09:49:30.659Z,49.5
2019-04-06T09:50:20.654Z,49.7
2019-04-06T09:51:10.179Z,49.8
2019-04-06T09:52:00.687Z,49.8
2019-04-06T09:52:51.180Z,49.8
2019-04-06T09:53:40.643Z,49.9
2019-04-06T09:54:31.142Z,50
2019-04-06T09:55:20.816Z,50.1
2019-04-06T09:56:11.159Z,50.1
2019-04-06T09:57:01.415Z,50.1
2019-04-06T09:57:51.451Z,50.2
2019-04-06T09:58:41.276Z,50.1
2019-04-06T09:59:39.227Z,50.2
2019-04-06T10:00:21.471Z,50.2
2019-04-06T10:01:11.607Z,50.2
2019-04-06T10:02:01.557Z,49.7
2019-04-06T10:02:51.578Z,49.7
2019-04-06T10:03:41.913Z,49.8
2019-04-06T10:06:12.458Z,50.2
2019-04-06T10:06:58.734Z,50.3
2019-04-06T10:07:48.877Z,50.4
2019-04-06T10:08:38.981Z,50.3
2019-04-06T10:09:28.900Z,50.3
2019-04-06T10:10:19.339Z,50.2
2019-04-06T10:11:08.998Z,50.1
2019-04-06T10:11:59.089Z,50
2019-04-06T10:12:49.084Z,49.3
2019-04-06T10:13:39.263Z,48.3
2019-04-06T10:14:29.070Z,47.9
2019-04-06T10:15:19.334Z,48.1
2019-04-06T10:16:09.683Z,47.8
2019-04-06T10:17:00.128Z,46.7
2019-04-06T10:17:49.608Z,45.9
2019-04-06T10:18:40.178Z,45.2
2019-04-06T10:19:29.605Z,44.5
2019-04-06T10:20:20.093Z,43.8
2019-04-06T10:21:09.923Z,42.8
2019-04-06T10:21:59.625Z,42.3
2019-04-06T10:22:49.591Z,42.1
2019-04-06T10:23:39.917Z,42
2019-04-06T10:24:30.139Z,41.8
2019-04-06T10:25:20.801Z,41.3
2019-04-06T10:26:10.242Z,41.3
2019-04-06T10:26:59.976Z,41.5
2019-04-06T10:27:50.553Z,41.6
2019-04-06T10:28:40.583Z,41.8
2019-04-06T10:29:30.052Z,41.9
2019-04-06T10:30:20.763Z,42.2
2019-04-06T10:31:10.653Z,42.3
2019-04-06T10:32:00.521Z,42.3
2019-04-06T10:32:51.343Z,41.9
2019-04-06T10:33:40.700Z,42
2019-04-06T10:34:30.744Z,41.6
2019-04-06T10:35:20.820Z,40.8
2019-04-06T10:36:10.687Z,40.6
2019-04-06T10:37:01.005Z,40.9
2019-04-06T10:37:50.974Z,41.3
2019-04-06T10:38:40.722Z,41.7
2019-04-06T10:39:31.124Z,42.1
2019-04-06T10:40:21.071Z,42.4
2019-04-06T10:41:11.784Z,42.8
2019-04-06T10:42:01.421Z,43
2019-04-06T10:42:51.134Z,43.2
2019-04-06T10:43:41.368Z,43.4
2019-04-06T10:44:31.987Z,43.6
2019-04-06T10:45:21.701Z,43.9
2019-04-06T10:46:11.602Z,44.1
2019-04-06T10:47:01.607Z,44.3
2019-04-06T10:47:52.059Z,44.6
2019-04-06T10:48:42.013Z,44.9
2019-04-06T10:49:31.521Z,45.2
2019-04-06T10:50:22.157Z,45.5
2019-04-06T10:51:11.973Z,45.8
2019-04-06T10:52:02.238Z,46.1
2019-04-06T10:52:52.033Z,46.4
2019-04-06T10:53:42.266Z,46.7
2019-04-06T10:54:32.236Z,47
2019-04-06T10:55:22.290Z,47.3
2019-04-06T10:56:12.848Z,47.5
2019-04-06T10:57:02.507Z,47.8
2019-04-06T10:57:52.604Z,48.1
2019-04-06T10:58:42.530Z,48.3
2019-04-06T10:59:32.864Z,48.3
2019-04-06T11:00:22.583Z,48.4
2019-04-06T11:01:12.664Z,48.6
2019-04-06T11:02:03.044Z,48.9
2019-04-06T11:02:52.958Z,48.9
2019-04-06T11:03:43.121Z,49.1
2019-04-06T11:04:33.305Z,49.2
2019-04-06T11:05:23.847Z,49.2
2019-04-06T11:06:13.118Z,49.2
2019-04-06T11:07:03.054Z,49.4
2019-04-06T11:07:53.458Z,49.6
2019-04-06T11:08:43.235Z,49.7
2019-04-06T11:09:33.732Z,49.8
2019-04-06T11:10:23.290Z,49.5
2019-04-06T11:11:16.352Z,49.4
2019-04-06T11:12:03.667Z,49.6
2019-04-06T11:12:53.613Z,49.8
2019-04-06T11:13:43.410Z,50
2019-04-06T11:14:33.645Z,50.3
2019-04-06T11:15:23.796Z,50.4
2019-04-06T11:16:13.989Z,50.6
2019-04-06T11:17:03.522Z,50.8
2019-04-06T11:17:54.024Z,50.9
2019-04-06T11:18:43.529Z,51.1
2019-04-06T11:19:34.173Z,51.2
2019-04-06T11:20:24.086Z,51.4
2019-04-06T11:21:14.413Z,51.5
2019-04-06T11:22:04.137Z,51.6
2019-04-06T11:22:54.481Z,51.7
2019-04-06T11:23:44.489Z,51.8
2019-04-06T11:24:34.334Z,51.8
2019-04-06T11:26:14.174Z,52
2019-04-06T11:27:04.222Z,52
2019-04-06T11:27:54.436Z,51.9
2019-04-06T11:28:44.113Z,51.9
2019-04-06T11:29:34.941Z,51.8
2019-04-06T11:30:24.796Z,51.8
2019-04-06T11:31:14.811Z,51.8
2019-04-06T11:32:05.554Z,51.5
2019-04-06T11:32:54.925Z,51.4
2019-04-06T11:33:44.442Z,51.6
2019-04-06T11:34:35.108Z,51.8
2019-04-06T11:35:25.066Z,51.9
2019-04-06T11:36:15.246Z,52
2019-04-06T11:37:05.361Z,52.1
2019-04-06T11:37:55.499Z,52.3
2019-04-06T11:38:45.747Z,52.3
2019-04-06T11:40:25.456Z,52.5
2019-04-06T11:41:16.001Z,52.6
2019-04-06T11:42:06.314Z,52.8
2019-04-06T11:42:55.775Z,52.9
2019-04-06T11:43:45.800Z,53.1
2019-04-06T11:44:36.074Z,53.3
2019-04-06T11:45:26.088Z,53.4
2019-04-06T11:46:16.365Z,53.5
2019-04-06T11:47:06.095Z,53.4
2019-04-06T11:47:55.923Z,53.5
2019-04-06T11:48:47.313Z,53.6
2019-04-06T11:49:36.634Z,53.6
2019-04-06T11:50:25.723Z,53.7
2019-04-06T11:51:15.785Z,53.8
2019-04-06T11:52:06.569Z,54
2019-04-06T11:52:55.915Z,54.1
2019-04-06T11:53:46.013Z,54.1
2019-04-06T11:54:36.288Z,54.2
2019-04-06T11:55:26.083Z,54.2
2019-04-06T11:56:16.155Z,54.1
2019-04-06T11:57:05.879Z,54.2
2019-04-06T11:57:56.784Z,54.3
2019-04-06T11:58:46.864Z,54.3
2019-04-06T11:59:36.857Z,54.4
2019-04-06T12:00:29.138Z,54.4
2019-04-06T12:01:17.223Z,54.4